METAR Data
IDs: Format: Raw Decoded Include TAF

Data at: 1422 UTC 27 Nov 2021

LICR 271350Z AUTO 16004KT 120V190 9999 FEW072/// BKN086/// 18/09 Q1003